Time;durP1;ratioP1;P1;durP2;ratioP2;P2;SDS_P1;SDS_P2;PMS_P1;PMS_P2;Temp;Humidity;BMP_temperature;BMP_pressure;BME280_temperature;BME280_humidity;BME280_pressure;Samples;Min_cycle;Max_cycle;Signal;HPM_P1;HPM_P2
2021/11/07 00:00:39;;;;;;;1.30;1.20;;;;;;;-1.05;98.79;99645.88;5092219;28;20054;-69
2021/11/07 00:03:11;;;;;;;1.30;1.20;;;;;;;-1.05;98.77;99646.72;5091891;28;20493;-69
2021/11/07 00:05:42;;;;;;;1.92;1.30;;;;;;;-1.09;98.65;99647.66;5092512;28;20056;-69
2021/11/07 00:11:03;;;;;;;1.27;1.17;;;;;;;-0.88;98.12;99648.84;5075793;28;20044;-69
2021/11/07 00:13:30;;;;;;;1.80;1.40;;;;;;;-1.12;99.07;99656.25;5092026;28;20052;-69
2021/11/07 00:16:02;;;;;;;;;;;;;;;-1.18;99.23;99658.09;5092459;28;20062;-69
2021/11/07 00:18:34;;;;;;;1.33;1.20;;;;;;;-1.17;98.92;99652.13;5092249;28;19920;-69
2021/11/07 00:21:05;;;;;;;2.10;1.60;;;;;;;-1.25;99.69;99659.16;5092023;28;20052;-69
2021/11/07 00:23:46;;;;;;;2.30;1.40;;;;;;;-1.20;99.13;99660.69;5092369;28;20048;-69
2021/11/07 00:26:21;;;;;;;1.50;1.40;;;;;;;-1.15;98.85;99660.59;5095902;28;20604;-69
2021/11/07 00:28:51;;;;;;;1.48;1.20;;;;;;;-1.17;99.22;99660.63;5096050;28;20560;-69
2021/11/07 00:31:24;;;;;;;1.33;1.23;;;;;;;-1.23;99.88;99662.47;5096187;28;20113;-69
2021/11/07 00:36:34;;;;;;;1.33;1.23;;;;;;;-1.08;98.94;99671.47;5051178;28;20052;-69
2021/11/07 00:39:10;;;;;;;1.17;1.08;;;;;;;-1.05;99.01;99676.50;5095419;28;20135;-69
2021/11/07 00:41:44;;;;;;;1.50;1.17;;;;;;;-0.96;98.62;99674.56;5096200;28;20075;-69
2021/11/07 00:44:15;;;;;;;0.93;0.93;;;;;;;-0.71;97.12;99674.78;5095636;28;20048;-69
2021/11/07 00:46:45;;;;;;;2.38;1.20;;;;;;;-1.07;97.67;99680.84;5095721;28;20098;-69
2021/11/07 00:49:17;;;;;;;1.42;1.10;;;;;;;-1.07;98.21;99678.28;5095533;28;20048;-69
2021/11/07 00:51:55;;;;;;;1.23;1.00;;;;;;;-1.03;98.02;99677.31;5095806;28;20479;-68
2021/11/07 00:54:27;;;;;;;1.15;1.05;;;;;;;-1.40;99.09;99681.59;5096011;28;20064;-69
2021/11/07 00:56:57;;;;;;;1.15;1.00;;;;;;;-1.45;99.47;99682.56;5095845;28;20059;-69
2021/11/07 00:59:35;;;;;;;1.38;1.10;;;;;;;-1.44;99.64;99685.09;5095868;28;20130;-69
2021/11/07 01:02:09;;;;;;;1.23;1.00;;;;;;;-1.28;99.17;99690.69;5095470;28;20479;-69
2021/11/07 01:04:37;;;;;;;0.80;0.80;;;;;;;-1.25;99.01;99705.09;5095761;28;20058;-69
2021/11/07 01:07:05;;;;;;;1.20;1.10;;;;;;;-1.22;98.14;99697.34;5095427;28;20077;-69
2021/11/07 01:09:32;;;;;;;0.88;0.88;;;;;;;-1.19;97.91;99703.22;5095532;28;20041;-69
2021/11/07 01:12:00;;;;;;;0.80;0.80;;;;;;;-1.08;97.85;99700.41;5095110;28;20244;-69
2021/11/07 01:14:27;;;;;;;1.52;1.00;;;;;;;-1.26;98.72;99701.66;5095124;28;20052;-69
2021/11/07 01:16:54;;;;;;;1.27;1.00;;;;;;;-0.90;98.09;99710.19;5095604;28;20058;-69
2021/11/07 01:19:21;;;;;;;1.20;1.10;;;;;;;-0.83;97.21;99717.69;5094893;28;20479;-69
2021/11/07 01:21:48;;;;;;;0.90;0.90;;;;;;;-0.81;96.72;99711.66;5095402;28;20055;-69
2021/11/07 01:24:18;;;;;;;;;;;;;;;-1.03;97.29;99715.59;5095577;28;20056;-69
2021/11/07 01:26:48;;;;;;;0.90;0.90;;;;;;;-1.02;97.31;99720.69;5095332;28;20009;-69
2021/11/07 01:29:19;;;;;;;1.02;1.00;;;;;;;-0.88;96.49;99715.22;5094739;28;20048;-69
2021/11/07 01:31:47;;;;;;;0.80;0.80;;;;;;;-0.93;97.08;99719.63;5094983;28;20388;-69
2021/11/07 01:34:21;;;;;;;1.00;0.90;;;;;;;-1.11;97.00;99720.91;5094965;28;20052;-69
2021/11/07 01:36:50;;;;;;;0.80;0.80;;;;;;;-1.38;97.89;99730.03;5095241;28;20056;-69
2021/11/07 01:39:20;;;;;;;0.80;0.80;;;;;;;-1.35;98.09;99729.97;5094817;28;20048;-69
2021/11/07 01:42:02;;;;;;;0.75;0.75;;;;;;;-1.39;97.92;99728.34;5094748;28;20078;-69
2021/11/07 01:44:39;;;;;;;0.90;0.90;;;;;;;-1.71;98.23;99732.44;5095034;28;20044;-70
2021/11/07 01:47:06;;;;;;;1.40;0.80;;;;;;;-1.84;98.87;99736.13;5094809;28;20055;-70
2021/11/07 01:49:37;;;;;;;0.85;0.85;;;;;;;-1.78;98.34;99734.28;5094719;28;20047;-70
2021/11/07 01:52:08;;;;;;;1.00;0.90;;;;;;;-1.76;98.28;99735.09;5094073;28;20060;-69
2021/11/07 01:54:46;;;;;;;1.00;0.93;;;;;;;-1.85;98.92;99735.28;5094593;28;20496;-69
2021/11/07 01:57:13;;;;;;;0.98;0.93;;;;;;;-1.73;99.25;99748.66;5094238;28;20545;-69
2021/11/07 01:59:45;;;;;;;;;;;;;;;-1.72;99.63;99751.19;5094707;28;20051;-69
2021/11/07 02:02:13;;;;;;;0.95;0.82;;;;;;;-1.54;99.53;99755.06;5094139;28;20421;-69
2021/11/07 02:04:40;;;;;;;1.30;1.00;;;;;;;-1.39;99.18;99751.31;5094305;28;20048;-69
2021/11/07 02:07:08;;;;;;;0.90;0.90;;;;;;;-1.35;98.63;99753.78;5094346;28;20052;-69
2021/11/07 02:09:35;;;;;;;0.90;0.90;;;;;;;-1.26;97.95;99750.16;5094063;28;20424;-69
2021/11/07 02:12:02;;;;;;;0.80;0.80;;;;;;;-1.43;98.74;99760.75;5094279;28;20064;-69
2021/11/07 02:14:29;;;;;;;1.15;0.98;;;;;;;-1.37;97.87;99752.97;5094439;28;20048;-69
2021/11/07 02:16:57;;;;;;;0.60;0.60;;;;;;;-1.11;97.09;99759.19;5094383;28;20057;-69
2021/11/07 02:19:24;;;;;;;0.90;0.90;;;;;;;-1.23;97.14;99764.56;5094276;28;20048;-69
2021/11/07 02:21:52;;;;;;;;;;;;;;;-1.27;97.51;99768.09;5094546;28;20055;-69
2021/11/07 02:24:20;;;;;;;0.90;0.90;;;;;;;-1.16;97.19;99774.59;5094035;28;19920;-69
2021/11/07 02:26:53;;;;;;;1.55;1.00;;;;;;;-1.18;96.40;99763.63;5093882;28;20507;-69
2021/11/07 02:29:21;;;;;;;0.80;0.80;;;;;;;-1.32;97.91;99778.38;5093913;28;20051;-68
2021/11/07 02:31:48;;;;;;;0.80;0.80;;;;;;;-1.26;97.57;99777.41;5093694;28;20102;-69
2021/11/07 02:34:15;;;;;;;0.80;0.80;;;;;;;-1.17;97.23;99782.31;5093521;28;20048;-69
2021/11/07 02:36:43;;;;;;;0.80;0.80;;;;;;;-1.17;97.25;99784.88;5093750;28;20514;-69
2021/11/07 02:39:13;;;;;;;0.93;0.80;;;;;;;-1.36;98.00;99790.38;5093330;28;20048;-69
2021/11/07 02:41:40;;;;;;;1.77;0.80;;;;;;;-1.35;98.09;99791.22;5093778;28;20058;-69
2021/11/07 02:44:08;;;;;;;0.80;0.80;;;;;;;-1.35;98.45;99797.16;5093597;28;20071;-69
2021/11/07 02:46:35;;;;;;;0.70;0.70;;;;;;;-1.22;97.20;99799.44;5092997;28;20480;-69
2021/11/07 02:49:05;;;;;;;0.70;0.70;;;;;;;-1.28;97.32;99797.88;5093236;28;20044;-69
2021/11/07 02:51:34;;;;;;;1.15;0.82;;;;;;;-1.39;97.94;99793.00;5093442;28;20044;-69
2021/11/07 02:54:03;;;;;;;1.17;0.90;;;;;;;-1.26;97.08;99796.09;5092972;28;20428;-69
2021/11/07 02:56:31;;;;;;;0.73;0.73;;;;;;;-1.26;96.98;99792.72;5093292;28;20495;-69
2021/11/07 02:58:58;;;;;;;1.05;0.95;;;;;;;-1.32;96.65;99794.53;5092952;28;20506;-69
2021/11/07 03:01:28;;;;;;;0.70;0.70;;;;;;;-1.27;96.75;99802.09;5093549;28;20051;-69
2021/11/07 03:04:04;;;;;;;0.73;0.73;;;;;;;-1.49;97.61;99800.84;5093345;28;20084;-68
2021/11/07 03:06:31;;;;;;;0.80;0.80;;;;;;;-1.49;98.16;99808.50;5093434;28;20063;-68
2021/11/07 03:08:58;;;;;;;0.90;0.90;;;;;;;-1.62;98.09;99808.78;5092797;28;20055;-69
2021/11/07 03:11:25;;;;;;;0.77;0.77;;;;;;;-1.59;98.10;99813.00;5093202;28;20044;-69
2021/11/07 03:13:58;;;;;;;0.70;0.70;;;;;;;-1.63;97.92;99806.25;5093227;28;20044;-69
2021/11/07 03:16:26;;;;;;;0.70;0.70;;;;;;;-1.59;98.22;99815.53;5092845;28;20134;-68
2021/11/07 03:18:52;;;;;;;;;;;;;;;-1.46;97.28;99821.22;5093393;28;20044;-68
2021/11/07 03:21:22;;;;;;;0.70;0.70;;;;;;;-1.58;97.90;99819.75;5092994;28;19919;-69
2021/11/07 03:23:51;;;;;;;1.00;0.90;;;;;;;-1.70;98.12;99833.59;5092787;28;20055;-69
2021/11/07 03:26:19;;;;;;;0.93;0.90;;;;;;;-1.57;97.52;99835.03;5092848;28;20056;-69
2021/11/07 03:28:48;;;;;;;0.80;0.80;;;;;;;-1.49;97.92;99831.47;5093005;28;20052;-69
2021/11/07 03:31:21;;;;;;;0.82;0.77;;;;;;;-1.63;97.55;99840.25;5092235;28;20074;-69
2021/11/07 03:33:50;;;;;;;0.73;0.73;;;;;;;-1.72;97.81;99839.59;5092962;28;20047;-69
2021/11/07 03:36:19;;;;;;;0.90;0.80;;;;;;;-1.67;97.26;99841.19;5092369;28;20091;-69
2021/11/07 03:38:47;;;;;;;0.70;0.70;;;;;;;-1.60;97.35;99847.84;5092511;28;20446;-69
2021/11/07 03:41:15;;;;;;;0.80;0.80;;;;;;;-1.80;97.94;99847.38;5092301;28;20044;-69
2021/11/07 03:43:42;;;;;;;0.80;0.80;;;;;;;-1.79;98.21;99852.47;5092656;28;20058;-69
2021/11/07 03:46:10;;;;;;;0.82;0.82;;;;;;;-1.77;97.87;99850.72;5092411;28;20067;-69
2021/11/07 03:48:40;;;;;;;0.80;0.80;;;;;;;-1.94;98.11;99857.00;5092635;28;20044;-69
2021/11/07 03:51:11;;;;;;;1.15;0.90;;;;;;;-1.78;97.62;99860.94;5092180;28;20602;-69
2021/11/07 03:53:38;;;;;;;0.80;0.80;;;;;;;-1.88;98.22;99865.38;5092173;28;20194;-68
2021/11/07 03:56:05;;;;;;;1.00;1.00;;;;;;;-1.91;98.71;99865.44;5092070;28;20515;-69
2021/11/07 03:58:33;;;;;;;1.10;1.00;;;;;;;-1.86;98.79;99873.00;5091640;28;20052;-69
2021/11/07 04:00:59;;;;;;;0.80;0.80;;;;;;;-1.76;98.04;99874.53;5091883;28;20048;-69
2021/11/07 04:03:26;;;;;;;1.77;0.90;;;;;;;-1.61;97.33;99873.41;5092500;28;20479;-68
2021/11/07 04:05:55;;;;;;;0.82;0.80;;;;;;;-1.66;97.45;99872.66;5092478;28;20051;-68
2021/11/07 04:08:22;;;;;;;0.80;0.80;;;;;;;-1.57;97.30;99867.34;5091866;28;20507;-69
2021/11/07 04:10:48;;;;;;;1.85;0.90;;;;;;;-1.58;97.29;99874.16;5092121;28;20043;-69
2021/11/07 04:13:16;;;;;;;0.80;0.80;;;;;;;-1.68;97.23;99882.03;5091782;28;20048;-69
2021/11/07 04:15:43;;;;;;;0.93;0.90;;;;;;;-1.66;97.22;99886.22;5092220;28;20068;-69
2021/11/07 04:18:10;;;;;;;1.00;0.90;;;;;;;-1.71;97.27;99888.03;5091763;28;20048;-69
2021/11/07 04:20:37;;;;;;;0.80;0.80;;;;;;;-1.82;97.96;99892.50;5092133;28;20048;-69
2021/11/07 04:23:06;;;;;;;1.05;0.90;;;;;;;-1.71;97.36;99895.69;5091933;28;20048;-69
2021/11/07 04:25:33;;;;;;;1.00;1.00;;;;;;;-1.81;97.72;99912.00;5091955;28;20052;-69
2021/11/07 04:28:01;;;;;;;1.23;0.88;;;;;;;-1.61;97.35;99904.00;5091618;28;20048;-69
2021/11/07 04:30:27;;;;;;;;;;;;;;;-1.71;97.19;99905.88;5092287;28;20040;-69
2021/11/07 04:32:54;;;;;;;0.80;0.80;;;;;;;-1.73;97.11;99912.72;5092101;28;19920;-69
2021/11/07 04:35:21;;;;;;;0.80;0.80;;;;;;;-1.67;96.80;99917.72;5091901;28;20051;-68
2021/11/07 04:37:48;;;;;;;0.82;0.80;;;;;;;-1.74;96.90;99917.84;5092318;28;20052;-68
2021/11/07 04:40:16;;;;;;;1.15;0.98;;;;;;;-1.79;97.38;99915.38;5091831;28;20051;-68
2021/11/07 04:42:44;;;;;;;0.73;0.73;;;;;;;-1.93;97.85;99915.59;5092001;28;20135;-68
2021/11/07 04:45:11;;;;;;;0.90;0.90;;;;;;;-1.89;97.51;99913.88;5091419;28;20415;-68
2021/11/07 04:47:38;;;;;;;0.80;0.80;;;;;;;-1.79;97.12;99917.94;5091768;28;20048;-69
2021/11/07 04:50:07;;;;;;;0.70;0.70;;;;;;;-1.88;97.19;99929.13;5091708;28;20051;-68
2021/11/07 04:52:34;;;;;;;0.80;0.80;;;;;;;-1.86;97.35;99935.03;5091612;28;20054;-67
2021/11/07 04:55:01;;;;;;;0.70;0.70;;;;;;;-1.87;96.76;99938.47;5091773;28;20438;-68
2021/11/07 04:57:30;;;;;;;0.70;0.70;;;;;;;-2.03;97.36;99934.47;5092019;28;20052;-68
2021/11/07 04:59:57;;;;;;;0.80;0.80;;;;;;;-1.95;97.21;99939.44;5091791;28;20048;-68
2021/11/07 05:02:24;;;;;;;1.73;1.00;;;;;;;-2.08;97.25;99951.56;5091638;28;20056;-68
2021/11/07 05:04:54;;;;;;;1.17;0.90;;;;;;;-2.09;97.88;99949.88;5091793;28;20055;-68
2021/11/07 05:07:21;;;;;;;0.70;0.70;;;;;;;-2.02;97.78;99948.91;5091428;28;20048;-68
2021/11/07 05:09:48;;;;;;;0.90;0.90;;;;;;;-2.08;97.99;99952.41;5091909;28;20457;-68
2021/11/07 05:12:15;;;;;;;1.00;1.00;;;;;;;-2.10;97.91;99945.66;5095352;28;20051;-68
2021/11/07 05:14:44;;;;;;;0.68;0.68;;;;;;;-2.16;98.68;99950.84;5095324;28;20044;-68
2021/11/07 05:17:11;;;;;;;2.60;0.90;;;;;;;-2.01;97.93;99959.06;5095237;28;20051;-68
2021/11/07 05:19:38;;;;;;;1.00;1.00;;;;;;;-2.07;98.26;99959.19;5095449;28;20048;-68
2021/11/07 05:22:05;;;;;;;1.38;1.20;;;;;;;-1.98;97.89;99963.28;5095171;28;20075;-68
2021/11/07 05:24:32;;;;;;;0.80;0.80;;;;;;;-1.96;97.60;99966.66;5095179;28;20434;-68
2021/11/07 05:26:59;;;;;;;;;;;;;;;-1.98;97.57;99968.38;5095246;28;20048;-68
2021/11/07 05:29:26;;;;;;;1.27;1.05;;;;;;;-2.03;97.52;99970.16;5095299;28;19926;-68
2021/11/07 05:31:55;;;;;;;0.95;0.88;;;;;;;-1.94;97.24;99969.19;5095227;28;20048;-68
2021/11/07 05:34:22;;;;;;;1.10;1.00;;;;;;;-2.04;96.98;99976.13;5094705;28;20097;-68
2021/11/07 05:36:49;;;;;;;1.02;0.95;;;;;;;-2.06;97.14;99978.69;5095203;28;20051;-68
2021/11/07 05:39:16;;;;;;;1.02;0.93;;;;;;;-2.06;96.89;99985.50;5094857;28;20421;-68
2021/11/07 05:41:42;;;;;;;;;;;;;;;-2.08;97.15;99980.47;5095337;28;20393;-68
2021/11/07 05:44:10;;;;;;;2.92;0.95;;;;;;;-2.27;97.66;99984.13;5094493;28;19920;-69
2021/11/07 05:46:37;;;;;;;1.70;1.10;;;;;;;-2.19;97.49;99988.25;5094684;28;20123;-69
2021/11/07 05:49:05;;;;;;;1.00;0.90;;;;;;;-2.03;97.08;100000.75;5094409;28;20055;-68
2021/11/07 05:51:32;;;;;;;0.90;0.90;;;;;;;-2.13;97.40;100006.84;5094849;28;20415;-68
2021/11/07 05:54:00;;;;;;;2.05;0.90;;;;;;;-2.01;96.39;100002.41;5094062;28;20055;-69
2021/11/07 05:56:27;;;;;;;;;;;;;;;-2.12;96.90;100009.41;5094913;28;20054;-68
2021/11/07 05:58:54;;;;;;;1.67;1.00;;;;;;;-2.16;96.83;100015.38;5094472;28;19927;-68
2021/11/07 06:01:21;;;;;;;3.53;0.90;;;;;;;-2.21;96.98;100022.25;5093955;28;20040;-68
2021/11/07 06:03:47;;;;;;;1.63;1.20;;;;;;;-2.19;96.35;100018.00;5094348;28;20048;-68
2021/11/07 06:06:16;;;;;;;1.13;0.80;;;;;;;-2.17;96.41;100020.53;5094464;28;20054;-68
2021/11/07 06:08:44;;;;;;;0.82;0.82;;;;;;;-2.19;96.61;100026.47;5094564;28;20048;-68
2021/11/07 06:11:11;;;;;;;1.40;1.30;;;;;;;-2.29;96.38;100026.63;5094333;28;20040;-68
2021/11/07 06:13:38;;;;;;;1.00;1.00;;;;;;;-2.28;96.45;100036.81;5094015;28;20048;-68
2021/11/07 06:16:05;;;;;;;1.35;1.00;;;;;;;-2.32;96.46;100036.88;5093922;28;20143;-68
2021/11/07 06:18:32;;;;;;;2.47;1.00;;;;;;;-2.22;96.22;100036.72;5094062;28;20503;-68
2021/11/07 06:21:00;;;;;;;1.75;1.10;;;;;;;-2.39;96.46;100040.34;5093677;28;20073;-68
2021/11/07 06:23:28;;;;;;;1.67;1.00;;;;;;;-2.29;96.19;100050.41;5093661;28;20108;-68
2021/11/07 06:25:55;;;;;;;5.68;1.13;;;;;;;-2.31;95.99;100049.59;5094103;28;20080;-68
2021/11/07 06:28:22;;;;;;;2.10;1.00;;;;;;;-2.36;96.24;100056.47;5093895;28;20048;-68
2021/11/07 06:30:49;;;;;;;1.10;1.00;;;;;;;-2.45;96.40;100062.50;5094091;28;20044;-68
2021/11/07 06:33:17;;;;;;;1.13;1.02;;;;;;;-2.48;96.78;100071.91;5093869;28;20048;-68
2021/11/07 06:35:44;;;;;;;2.20;1.20;;;;;;;-2.49;96.80;100067.66;5093662;28;20064;-68
2021/11/07 06:38:12;;;;;;;1.27;1.05;;;;;;;-2.43;96.27;100067.59;5093445;28;20048;-68
2021/11/07 06:40:41;;;;;;;2.05;1.10;;;;;;;-2.50;96.68;100071.91;5093748;28;20048;-68
2021/11/07 06:43:08;;;;;;;3.35;1.10;;;;;;;-2.47;96.24;100074.41;5093528;28;20048;-68
2021/11/07 06:45:36;;;;;;;1.35;1.10;;;;;;;-2.56;96.31;100078.81;5093565;28;20052;-68
2021/11/07 06:48:03;;;;;;;2.10;1.45;;;;;;;-2.51;96.58;100079.59;5093154;28;20052;-68
2021/11/07 06:50:31;;;;;;;1.77;1.10;;;;;;;-2.44;96.39;100093.91;5093743;28;20051;-68
2021/11/07 06:52:58;;;;;;;1.30;1.20;;;;;;;-2.51;96.66;100088.06;5093121;28;20062;-68
2021/11/07 06:55:25;;;;;;;1.10;1.00;;;;;;;-2.47;96.68;100087.16;5093703;28;20048;-69
2021/11/07 06:57:53;;;;;;;;;;;;;;;-2.37;96.20;100092.16;5093682;28;20411;-68
2021/11/07 07:00:23;;;;;;;0.93;0.90;;;;;;;-2.39;95.69;100091.31;5093317;28;20014;-68
2021/11/07 07:02:50;;;;;;;1.20;1.10;;;;;;;-2.43;95.74;100098.16;5093700;28;20046;-70
2021/11/07 07:05:18;;;;;;;1.30;1.05;;;;;;;-2.43;95.80;100104.09;5093228;28;20097;-69
2021/11/07 07:07:48;;;;;;;1.08;1.00;;;;;;;-2.45;95.87;100103.28;5093340;28;20102;-69
2021/11/07 07:10:20;;;;;;;1.75;1.30;;;;;;;-2.34;95.55;100115.88;5093136;28;20044;-69
2021/11/07 07:12:52;;;;;;;1.83;1.10;;;;;;;-2.39;95.45;100117.63;5093071;28;20055;-70
2021/11/07 07:15:23;;;;;;;1.10;1.00;;;;;;;-2.32;95.08;100119.25;5092784;28;20511;-69
2021/11/07 07:17:57;;;;;;;1.45;1.10;;;;;;;-2.44;95.56;100117.72;5093169;28;20044;-69
2021/11/07 07:20:43;;;;;;;1.65;1.30;;;;;;;-2.43;95.30;100128.75;5092856;28;20513;-69
2021/11/07 07:29:03;;;;;;;1.58;1.17;;;;;;;-2.44;95.04;100142.31;5080660;28;20305;-69
2021/11/07 07:31:52;;;;;;;1.35;1.25;;;;;;;-2.49;94.95;100142.41;5092619;28;20399;-69
2021/11/07 07:34:21;;;;;;;2.47;1.17;;;;;;;-2.49;95.21;100146.63;5092608;28;20056;-70
2021/11/07 07:36:48;;;;;;;6.32;1.50;;;;;;;-2.49;95.25;100147.50;5092670;28;20142;-70
2021/11/07 07:39:15;;;;;;;1.88;1.35;;;;;;;-2.44;94.84;100155.06;5092687;28;20052;-69
2021/11/07 07:41:42;;;;;;;3.03;1.10;;;;;;;-2.47;95.15;100163.56;5092324;28;20048;-70
2021/11/07 07:44:09;;;;;;;3.20;1.30;;;;;;;-2.54;95.41;100162.00;5092224;28;20044;-69
2021/11/07 07:46:40;;;;;;;2.33;1.17;;;;;;;-2.53;95.28;100166.22;5092356;28;20062;-69
2021/11/07 07:49:07;;;;;;;1.80;1.38;;;;;;;-2.51;95.42;100169.59;5092556;28;20044;-70
2021/11/07 07:51:35;;;;;;;1.60;1.15;;;;;;;-2.57;95.40;100171.34;5092689;28;20046;-70
2021/11/07 07:54:03;;;;;;;;;;;;;;;-2.49;95.19;100174.66;5092274;28;20499;-70
2021/11/07 07:56:30;;;;;;;2.10;1.50;;;;;;;-2.58;95.66;100180.69;5092537;28;19923;-70
2021/11/07 07:58:58;;;;;;;2.63;1.40;;;;;;;-2.59;95.86;100178.16;5092585;28;20117;-69
2021/11/07 08:01:24;;;;;;;;;;;;;;;-2.49;95.40;100189.94;5092578;28;20044;-70
2021/11/07 08:03:53;;;;;;;2.47;1.23;;;;;;;-2.48;95.41;100191.63;5092283;28;19920;-70
2021/11/07 08:06:20;;;;;;;3.13;1.55;;;;;;;-2.43;95.30;100192.44;5091817;28;20058;-70
2021/11/07 08:08:47;;;;;;;;;;;;;;;-2.45;95.24;100196.69;5092591;28;20063;-70
2021/11/07 08:11:14;;;;;;;3.25;1.60;;;;;;;-2.51;95.46;100197.59;5091806;28;19920;-69
2021/11/07 08:13:41;;;;;;;2.25;1.60;;;;;;;-2.42;95.07;100194.09;5092348;28;20047;-68
2021/11/07 08:16:09;;;;;;;2.22;1.52;;;;;;;-2.46;95.29;100200.13;5092116;28;20040;-69
2021/11/07 08:18:36;;;;;;;3.17;1.60;;;;;;;-2.38;95.12;100207.69;5092239;28;20054;-69
2021/11/07 08:21:04;;;;;;;;;;;;;;;-2.41;95.16;100201.75;5092489;28;20146;-68
2021/11/07 08:23:32;;;;;;;2.50;1.50;;;;;;;-2.34;94.95;100211.88;5092195;28;19920;-69
2021/11/07 08:25:59;;;;;;;;;;;;;;;-2.36;95.15;100221.22;5092509;28;20078;-69
2021/11/07 08:28:26;;;;;;;1.38;1.27;;;;;;;-2.35;94.99;100222.94;5091909;28;19930;-69
2021/11/07 08:30:56;;;;;;;1.63;1.30;;;;;;;-2.33;95.05;100219.50;5091827;28;20064;-69
2021/11/07 08:33:23;;;;;;;3.83;1.48;;;;;;;-2.33;95.21;100223.75;5091876;28;20070;-69
2021/11/07 08:35:50;;;;;;;2.15;1.40;;;;;;;-2.31;95.12;100229.66;5092213;28;20048;-69
2021/11/07 08:38:21;;;;;;;2.22;1.33;;;;;;;-2.45;95.80;100240.00;5091837;28;20044;-68
2021/11/07 08:40:50;;;;;;;2.33;1.60;;;;;;;-2.33;95.13;100242.44;5091814;28;20048;-69
2021/11/07 09:02:47;;;;;;;3.08;1.52;;;;;;;-1.17;91.13;100268.19;5095740;28;20078;-69
2021/11/07 09:05:16;;;;;;;3.03;1.48;;;;;;;-1.21;91.30;100268.25;5095310;28;20442;-69
2021/11/07 09:07:59;;;;;;;1.50;1.40;;;;;;;-1.18;91.09;100273.31;5095476;28;20052;-69
2021/11/07 09:10:30;;;;;;;2.28;1.17;;;;;;;-1.20;91.31;100269.94;5095477;28;20474;-69
2021/11/07 09:12:58;;;;;;;1.55;1.20;;;;;;;-1.23;90.94;100267.41;5095307;28;20621;-69
2021/11/07 09:15:26;;;;;;;1.50;1.40;;;;;;;-1.23;90.64;100272.53;5095391;28;20055;-69
2021/11/07 09:17:55;;;;;;;1.30;1.20;;;;;;;-1.13;90.73;100277.50;5095282;28;20407;-69
2021/11/07 09:20:34;;;;;;;1.40;1.30;;;;;;;-1.06;90.38;100272.28;5095319;28;20113;-69
2021/11/07 09:23:04;;;;;;;2.67;1.27;;;;;;;-1.13;90.46;100280.06;5095229;28;20127;-69
2021/11/07 09:25:37;;;;;;;1.30;1.20;;;;;;;-1.11;89.94;100280.84;5095198;28;20052;-69
2021/11/07 09:28:07;;;;;;;3.25;1.30;;;;;;;-1.18;90.22;100286.94;5095132;28;20058;-69
2021/11/07 09:30:40;;;;;;;5.90;1.55;;;;;;;-1.42;91.00;100275.34;5095297;28;20044;-69
2021/11/07 09:33:12;;;;;;;2.92;1.45;;;;;;;-1.37;90.81;100288.03;5095054;28;20072;-69
2021/11/07 09:35:45;;;;;;;3.15;1.40;;;;;;;-1.43;90.63;100295.78;5095219;28;20148;-69
2021/11/07 09:38:17;;;;;;;2.08;1.50;;;;;;;-1.44;91.02;100299.19;5094612;28;20084;-69
2021/11/07 09:40:48;;;;;;;1.90;1.70;;;;;;;-1.29;90.48;100304.09;5094858;28;20051;-69
2021/11/07 09:43:37;;;;;;;2.92;1.55;;;;;;;-1.26;89.85;100309.16;5094725;28;20044;-69
2021/11/07 09:46:12;;;;;;;2.85;1.50;;;;;;;-1.28;89.62;100315.13;5094575;28;20536;-69
2021/11/07 09:48:42;;;;;;;3.25;1.58;;;;;;;-1.33;89.82;100310.13;5094554;28;20513;-68
2021/11/07 09:51:16;;;;;;;2.92;1.60;;;;;;;-1.24;89.95;100320.19;5094595;28;20053;-68
2021/11/07 09:53:44;;;;;;;2.33;1.60;;;;;;;-1.07;88.77;100316.56;5094562;28;20139;-68
2021/11/07 09:56:13;;;;;;;;;;;;;;;-1.12;88.99;100321.75;5094122;28;20055;-70
2021/11/07 09:58:41;;;;;;;1.33;1.13;;;;;;;-1.00;88.73;100328.38;5094343;28;19959;-69
2021/11/07 10:01:09;;;;;;;4.85;1.77;;;;;;;-0.88;87.96;100323.94;5094028;28;20139;-69
2021/11/07 10:03:40;;;;;;;3.45;1.52;;;;;;;-0.83;88.13;100330.69;5094670;28;20101;-69
2021/11/07 10:06:25;;;;;;;5.07;1.65;;;;;;;-0.69;87.41;100337.28;5094120;28;20048;-69
2021/11/07 10:08:52;;;;;;;2.67;1.55;;;;;;;-0.37;85.32;100327.41;5094263;28;20507;-69
2021/11/07 10:11:20;;;;;;;2.95;1.52;;;;;;;-0.46;85.10;100325.84;5093901;28;20048;-69
2021/11/07 10:14:03;;;;;;;3.20;1.77;;;;;;;-0.95;86.76;100327.47;5094146;28;20047;-69
2021/11/07 10:16:42;;;;;;;2.60;1.90;;;;;;;-1.08;87.68;100328.47;5094095;28;20411;-69
2021/11/07 10:19:17;;;;;;;3.30;1.60;;;;;;;-1.11;87.84;100331.06;5094181;28;20056;-69
2021/11/07 10:21:49;;;;;;;3.22;1.50;;;;;;;-1.25;88.37;100333.81;5093983;28;20044;-69
2021/11/07 10:24:20;;;;;;;6.18;2.00;;;;;;;-1.23;88.48;100334.66;5094082;28;20392;-69
2021/11/07 10:26:55;;;;;;;3.72;1.73;;;;;;;-0.84;87.20;100340.06;5093867;28;20129;-69
2021/11/07 10:29:29;;;;;;;2.65;1.60;;;;;;;-0.47;85.49;100344.59;5093880;28;20048;-69
2021/11/07 10:32:04;;;;;;;3.67;2.08;;;;;;;-0.66;85.99;100347.44;5093924;28;20475;-69
2021/11/07 10:34:53;;;;;;;3.53;1.35;;;;;;;-0.59;85.84;100350.78;5094095;28;20047;-70
2021/11/07 10:43:36;;;;;;;2.85;1.50;;;;;;;-0.30;85.48;100367.34;5072361;28;20063;-69
2021/11/07 10:46:31;;;;;;;1.90;1.48;;;;;;;-0.39;85.65;100372.59;5093518;28;20048;-70
2021/11/07 10:52:08;;;;;;;4.88;1.98;;;;;;;-0.29;84.75;100377.53;5093367;28;20077;-68
2021/11/07 10:54:42;;;;;;;2.33;1.50;;;;;;;-0.04;83.81;100380.53;5093799;28;20056;-69
2021/11/07 10:57:17;;;;;;;2.85;1.75;;;;;;;-0.27;84.78;100378.34;5093377;28;20047;-69
2021/11/07 11:00:07;;;;;;;2.88;1.50;;;;;;;-0.24;84.79;100385.97;5093643;28;20044;-69
2021/11/07 11:02:34;;;;;;;2.30;1.55;;;;;;;-0.41;86.11;100387.97;5093199;28;20411;-69
2021/11/07 11:05:06;;;;;;;3.20;2.13;;;;;;;-0.43;85.98;100393.97;5093290;28;20051;-69
2021/11/07 11:07:33;;;;;;;2.90;1.83;;;;;;;-0.55;85.20;100392.44;5092810;28;20097;-69
2021/11/07 11:10:17;;;;;;;2.67;1.70;;;;;;;-0.72;86.73;100388.44;5092772;28;20495;-69
2021/11/07 11:13:06;;;;;;;3.88;1.58;;;;;;;-0.59;85.98;100398.44;5093062;28;20488;-69
2021/11/07 11:15:42;;;;;;;2.80;1.45;;;;;;;-0.77;85.67;100402.97;5092950;28;20088;-69
2021/11/07 11:18:25;;;;;;;4.47;1.58;;;;;;;-0.91;85.25;100402.31;5092632;28;20074;-69
2021/11/07 11:23:57;;;;;;;1.67;1.55;;;;;;;-1.05;86.46;100405.06;5089883;28;20066;-69
2021/11/07 11:29:20;;;;;;;1.75;1.20;;;;;;;-0.90;85.10;100419.31;5089556;28;20520;-69
2021/11/07 11:31:54;;;;;;;3.35;1.50;;;;;;;-1.06;86.22;100421.22;5093042;28;20052;-69
2021/11/07 11:34:25;;;;;;;2.70;1.67;;;;;;;-1.15;85.27;100406.03;5092654;28;20048;-69
2021/11/07 11:36:57;;;;;;;4.70;1.70;;;;;;;-1.23;86.22;100425.69;5092598;28;20101;-69
2021/11/07 11:39:29;;;;;;;3.17;2.00;;;;;;;-1.20;86.11;100423.97;5092944;28;20048;-69
2021/11/07 11:42:01;;;;;;;1.65;1.55;;;;;;;-1.30;86.35;100426.66;5092643;28;20168;-68
2021/11/07 11:44:29;;;;;;;1.88;1.67;;;;;;;-1.21;86.10;100429.91;5092756;28;20071;-68
2021/11/07 11:47:14;;;;;;;1.63;1.52;;;;;;;-1.39;86.15;100438.66;5092332;28;20040;-69
2021/11/07 11:50:14;;;;;;;1.67;1.48;;;;;;;-1.45;86.82;100443.81;5092738;28;20051;-69
2021/11/07 11:52:53;;;;;;;3.50;1.77;;;;;;;-1.40;86.41;100442.06;5092385;28;20071;-69
2021/11/07 11:55:39;;;;;;;2.90;1.88;;;;;;;-1.70;87.44;100444.91;5092131;28;20135;-68
2021/11/07 11:58:27;;;;;;;1.60;1.50;;;;;;;-1.65;87.37;100438.91;5092326;28;20051;-69
2021/11/07 12:01:02;;;;;;;5.70;2.10;;;;;;;-1.62;86.70;100443.13;5092868;28;20052;-69
2021/11/07 12:03:47;;;;;;;2.80;1.90;;;;;;;-1.46;86.52;100444.69;5092534;28;20064;-69
2021/11/07 12:06:29;;;;;;;3.53;1.75;;;;;;;-1.30;85.60;100452.16;5091875;28;20454;-69
2021/11/07 12:12:09;;;;;;;3.47;1.73;;;;;;;-0.02;80.53;100447.84;5091397;28;20044;-70
2021/11/07 12:15:03;;;;;;;2.55;1.60;;;;;;;-0.38;80.72;100441.59;5092336;28;20134;-70
2021/11/07 12:17:33;;;;;;;2.85;1.50;;;;;;;0.29;79.47;100449.06;5092424;28;20052;-70
2021/11/07 12:20:21;;;;;;;1.65;1.42;;;;;;;-0.19;79.57;100451.53;5091574;28;20047;-71
2021/11/07 12:22:50;;;;;;;3.75;1.40;;;;;;;-0.92;83.16;100460.22;5091887;28;20047;-70
2021/11/07 12:25:20;;;;;;;2.90;1.40;;;;;;;-0.92;83.20;100454.28;5091623;28;20059;-70
2021/11/07 12:27:51;;;;;;;4.22;1.85;;;;;;;-1.27;84.45;100462.34;5092143;28;20052;-70
2021/11/07 12:30:25;;;;;;;6.25;1.73;;;;;;;-1.07;83.84;100459.56;5091685;28;20513;-70
2021/11/07 12:33:02;;;;;;;4.47;1.60;;;;;;;-1.22;85.04;100470.81;5091823;28;20055;-70
2021/11/07 12:35:37;;;;;;;3.53;1.52;;;;;;;-1.47;85.52;100476.16;5091952;28;20048;-70
2021/11/07 12:41:06;;;;;;;5.40;1.65;;;;;;;-1.53;86.27;100476.22;5091616;28;20097;-70